3°C Temp
1°C Dauwpunt
87% Vochtigheid
Temperatuur
14 KM/H
80°
Pal Oost

Windsnelheid
Bewolking
Barometer: 1024  (hPa)
Zicht: 10.0  (km)

Huidige situatie
EHGG
Locatie Eelde 20  (km)
Metar :EHGG 130455Z AUTO 08008KT 050V110 9999 OVC017 03/01 Q1024
13 December 05:55

Vliegveld
  Metar Aviation API Data Provided by https://www.checkwx.com/ CSS/SVG/PHP scripts by weather34.com ©2015-2018 2018